Time;durP1;ratioP1;P1;durP2;ratioP2;P2;SDS_P1;SDS_P2;PMS_P1;PMS_P2;Temp;Humidity;BMP_temperature;BMP_pressure;BME280_temperature;BME280_humidity;BME280_pressure;Samples;Min_cycle;Max_cycle;Signal;HPM_P1;HPM_P2
2022/04/13 00:00:09;;;;;;;6.18;2.60;;;8.50;99.90;;;;;;5016199;28;20549;-36
2022/04/13 00:02:35;;;;;;;4.50;2.75;;;8.50;99.90;;;;;;5008579;28;20041;-36
2022/04/13 00:05:01;;;;;;;6.00;2.95;;;8.60;99.90;;;;;;5010609;28;21844;-35
2022/04/13 00:07:26;;;;;;;5.22;2.97;;;8.50;99.90;;;;;;5007489;28;20034;-36
2022/04/13 00:09:53;;;;;;;3.63;2.65;;;8.30;99.90;;;;;;5014249;28;20038;-36
2022/04/13 00:12:19;;;;;;;7.05;3.38;;;8.40;99.90;;;;;;5007993;28;20420;-36
2022/04/13 00:14:45;;;;;;;4.53;3.17;;;8.40;99.90;;;;;;5009284;28;20052;-36
2022/04/13 00:17:11;;;;;;;5.85;3.30;;;8.30;99.90;;;;;;5007889;28;20034;-35
2022/04/13 00:19:36;;;;;;;4.47;3.15;;;8.40;99.90;;;;;;5006546;28;20080;-35
2022/04/13 00:22:03;;;;;;;7.03;3.47;;;8.30;99.90;;;;;;4990488;28;20042;-35
2022/04/13 00:24:29;;;;;;;4.80;2.78;;;8.20;99.90;;;;;;5001939;28;20637;-36
2022/04/13 00:26:57;;;;;;;6.80;3.40;;;8.20;99.90;;;;;;5005312;28;20061;-35
2022/04/13 00:29:23;;;;;;;3.80;2.83;;;8.20;99.90;;;;;;5007186;28;22238;-36
2022/04/13 00:31:51;;;;;;;4.97;2.60;;;8.00;99.90;;;;;;5010279;28;20029;-36
2022/04/13 00:34:17;;;;;;;5.68;3.33;;;7.80;99.90;;;;;;5008416;28;20068;-35
2022/04/13 00:36:42;;;;;;;4.68;2.90;;;7.70;99.90;;;;;;5002695;28;20057;-35
2022/04/13 00:39:08;;;;;;;5.32;3.50;;;7.60;99.90;;;;;;5010912;28;20467;-36
2022/04/13 00:41:34;;;;;;;3.25;2.90;;;7.60;99.90;;;;;;5011405;28;20547;-36
2022/04/13 00:44:08;;;;;;;3.17;2.85;;;7.70;99.90;;;;;;5005948;28;20104;-35
2022/04/13 00:46:34;;;;;;;5.25;3.47;;;7.50;99.90;;;;;;5008645;28;20037;-34
2022/04/13 00:49:02;;;;;;;4.60;3.13;;;7.40;99.90;;;;;;5010021;28;20085;-34
2022/04/13 00:51:28;;;;;;;3.97;2.58;;;6.90;99.90;;;;;;5016598;28;20080;-33
2022/04/13 00:53:57;;;;;;;3.40;2.20;;;6.60;99.90;;;;;;5004045;28;20030;-34
2022/04/13 00:56:24;;;;;;;;;;;6.90;99.90;;;;;;5013420;28;20558;-35
2022/04/13 00:58:55;;;;;;;4.40;2.72;;;7.00;99.90;;;;;;5001653;28;19914;-34
2022/04/13 01:01:24;;;;;;;4.18;3.17;;;6.70;99.90;;;;;;5006222;28;20023;-33
2022/04/13 01:03:53;;;;;;;3.60;2.78;;;6.90;99.90;;;;;;5002048;28;20043;-34
2022/04/13 01:06:19;;;;;;;5.20;2.95;;;7.00;99.90;;;;;;5008118;28;20399;-34
2022/04/13 01:08:50;;;;;;;3.38;2.38;;;7.10;99.90;;;;;;5008549;28;20065;-35
2022/04/13 01:11:17;;;;;;;3.67;2.25;;;7.10;99.90;;;;;;5016169;28;20084;-34
2022/04/13 01:13:43;;;;;;;2.67;2.47;;;7.20;99.90;;;;;;5011276;28;20037;-35
2022/04/13 01:16:09;;;;;;;3.15;2.10;;;7.00;99.90;;;;;;5010323;28;20033;-33
2022/04/13 01:18:34;;;;;;;4.18;2.42;;;6.80;99.90;;;;;;5009064;28;20571;-35
2022/04/13 01:21:00;;;;;;;2.72;2.28;;;7.00;99.90;;;;;;5014558;28;20030;-34
2022/04/13 01:23:27;;;;;;;3.78;2.60;;;7.00;99.90;;;;;;5010392;28;20035;-35
2022/04/13 01:25:55;;;;;;;3.40;2.28;;;7.10;99.90;;;;;;5009947;28;20499;-33
2022/04/13 01:28:22;;;;;;;4.53;2.85;;;7.10;99.90;;;;;;5006895;28;20037;-35
2022/04/13 01:30:49;;;;;;;3.70;2.80;;;7.00;99.90;;;;;;5013317;28;20033;-34
2022/04/13 01:33:15;;;;;;;3.92;2.72;;;6.90;99.90;;;;;;5010839;28;20292;-34
2022/04/13 01:35:40;;;;;;;2.88;2.50;;;6.80;99.90;;;;;;5010469;28;20105;-34
2022/04/13 01:38:07;;;;;;;5.28;3.30;;;6.70;99.90;;;;;;5004999;28;20152;-35
2022/04/13 01:40:33;;;;;;;6.18;3.90;;;6.70;99.90;;;;;;5006069;28;20027;-35
2022/04/13 01:42:59;;;;;;;4.97;3.47;;;6.80;99.90;;;;;;5010960;28;20037;-35
2022/04/13 01:45:25;;;;;;;8.18;3.47;;;6.70;99.90;;;;;;5007258;28;20034;-35
2022/04/13 01:47:52;;;;;;;6.32;3.58;;;6.70;99.90;;;;;;5004213;28;20030;-35
2022/04/13 01:50:19;;;;;;;3.95;3.20;;;6.50;99.90;;;;;;5007831;28;20025;-35
2022/04/13 01:52:48;;;;;;;5.63;3.13;;;6.40;99.90;;;;;;5008930;28;20062;-35
2022/04/13 01:55:14;;;;;;;5.45;3.70;;;6.50;99.90;;;;;;5011514;28;20284;-35
2022/04/13 01:57:41;;;;;;;6.38;3.95;;;6.60;99.90;;;;;;5015628;28;20079;-35
2022/04/13 02:00:10;;;;;;;6.05;3.17;;;6.70;99.90;;;;;;4991994;28;20458;-34
2022/04/13 02:02:37;;;;;;;4.72;3.05;;;6.70;99.90;;;;;;5011529;28;20043;-35
2022/04/13 02:05:03;;;;;;;5.93;3.30;;;6.70;99.90;;;;;;5009147;28;20113;-35
2022/04/13 02:07:29;;;;;;;5.05;3.08;;;6.30;99.90;;;;;;5014260;28;20129;-35
2022/04/13 02:09:57;;;;;;;6.47;3.63;;;6.00;99.90;;;;;;5007663;28;20441;-35
2022/04/13 02:12:23;;;;;;;4.82;3.00;;;6.00;99.90;;;;;;5008829;28;20038;-33
2022/04/13 02:14:49;;;;;;;6.38;3.05;;;6.20;99.90;;;;;;5004150;28;20044;-35
2022/04/13 02:17:16;;;;;;;6.53;3.03;;;6.30;99.90;;;;;;5006592;28;20049;-35
2022/04/13 02:19:43;;;;;;;6.83;3.30;;;6.00;99.90;;;;;;5004218;28;20123;-34
2022/04/13 02:22:09;;;;;;;5.55;3.10;;;5.90;99.90;;;;;;5009649;28;20080;-35
2022/04/13 02:24:35;;;;;;;5.32;3.03;;;6.00;99.90;;;;;;4999671;28;20419;-35
2022/04/13 02:27:04;;;;;;;4.20;2.75;;;6.10;99.90;;;;;;5009031;28;20481;-35
2022/04/13 02:29:30;;;;;;;;;;;6.10;99.90;;;;;;5006418;28;20038;-33
2022/04/13 02:31:55;;;;;;;6.35;3.15;;;6.20;99.90;;;;;;5008498;28;19923;-35
2022/04/13 02:34:21;;;;;;;6.68;3.88;;;6.20;99.90;;;;;;5006402;28;20030;-34
2022/04/13 02:36:47;;;;;;;4.13;3.13;;;6.10;99.90;;;;;;5004580;28;20478;-35
2022/04/13 02:39:12;;;;;;;4.72;3.20;;;6.10;99.90;;;;;;5005510;28;20026;-34
2022/04/13 02:41:39;;;;;;;6.00;3.45;;;6.20;99.90;;;;;;5005279;28;20030;-35
2022/04/13 02:44:05;;;;;;;3.78;2.75;;;6.20;99.90;;;;;;5005336;28;20021;-35
2022/04/13 02:46:30;;;;;;;4.60;3.38;;;6.20;99.90;;;;;;5008741;28;20032;-35
2022/04/13 02:48:56;;;;;;;3.88;2.80;;;5.80;99.90;;;;;;5002044;28;20131;-35
2022/04/13 02:51:22;;;;;;;4.15;3.25;;;5.70;99.90;;;;;;5006618;28;20437;-35
2022/04/13 02:53:47;;;;;;;6.50;3.03;;;5.70;99.90;;;;;;4999384;28;20033;-35
2022/04/13 02:56:13;;;;;;;5.85;3.40;;;5.70;99.90;;;;;;5002364;28;20030;-35
2022/04/13 02:58:38;;;;;;;3.72;2.90;;;5.80;99.90;;;;;;5004725;28;20058;-35
2022/04/13 03:01:06;;;;;;;4.22;3.47;;;5.80;99.90;;;;;;4996239;28;20502;-33
2022/04/13 03:03:32;;;;;;;3.83;2.80;;;5.80;99.90;;;;;;5008375;28;20489;-34
2022/04/13 03:05:58;;;;;;;6.10;3.40;;;5.80;99.90;;;;;;5000444;28;20109;-35
2022/04/13 03:08:24;;;;;;;5.35;3.45;;;5.80;99.90;;;;;;5004881;28;20112;-34
2022/04/13 03:10:49;;;;;;;4.82;3.40;;;5.80;99.90;;;;;;5002659;28;20087;-35
2022/04/13 03:13:15;;;;;;;4.90;3.40;;;5.60;99.90;;;;;;5002741;28;20038;-35
2022/04/13 03:15:41;;;;;;;4.93;3.40;;;5.60;99.90;;;;;;5000816;28;20030;-34
2022/04/13 03:18:07;;;;;;;7.25;3.40;;;5.60;99.90;;;;;;5002087;28;20449;-35
2022/04/13 03:20:34;;;;;;;6.70;3.67;;;5.70;99.90;;;;;;5001836;28;20085;-34
2022/04/13 03:23:00;;;;;;;6.70;3.60;;;5.60;99.90;;;;;;5003582;28;20037;-35
2022/04/13 03:25:26;;;;;;;7.03;3.42;;;5.60;99.90;;;;;;5001155;28;20038;-36
2022/04/13 03:27:52;;;;;;;5.82;3.72;;;5.60;99.90;;;;;;5003515;28;20033;-35
2022/04/13 03:30:18;;;;;;;3.33;2.67;;;5.70;99.90;;;;;;5002467;28;20026;-35
2022/04/13 03:32:44;;;;;;;5.22;3.25;;;5.70;99.90;;;;;;5000613;28;20120;-35
2022/04/13 03:35:11;;;;;;;4.78;3.00;;;5.60;99.90;;;;;;5001746;28;20034;-35
2022/04/13 03:37:37;;;;;;;7.43;3.38;;;5.40;99.90;;;;;;5007383;28;20475;-35
2022/04/13 03:40:03;;;;;;;7.43;3.95;;;5.40;99.90;;;;;;5003288;28;20037;-36
2022/04/13 03:42:36;;;;;;;3.90;3.03;;;5.40;99.90;;;;;;5004049;28;20034;-35
2022/04/13 03:45:20;;;;;;;5.43;3.30;;;5.40;99.90;;;;;;5000378;28;20514;-35
2022/04/13 03:47:46;;;;;;;4.63;3.13;;;5.20;99.90;;;;;;5005856;28;20025;-35
2022/04/13 03:50:11;;;;;;;3.20;2.58;;;5.30;99.90;;;;;;5003934;28;20105;-35
2022/04/13 03:52:38;;;;;;;4.18;3.03;;;5.20;99.90;;;;;;5008891;28;20046;-35
2022/04/13 03:55:06;;;;;;;5.53;3.00;;;5.30;99.90;;;;;;4985813;28;20076;-35
2022/04/13 03:57:32;;;;;;;9.98;3.63;;;5.30;99.90;;;;;;5006896;28;20411;-35
2022/04/13 03:59:58;;;;;;;6.35;3.03;;;5.20;99.90;;;;;;5000848;28;20033;-34
2022/04/13 04:02:24;;;;;;;2.95;2.65;;;4.90;99.90;;;;;;5002559;28;20426;-35
2022/04/13 04:04:50;;;;;;;3.13;2.67;;;4.50;99.90;;;;;;5000647;28;20030;-34
2022/04/13 04:07:16;;;;;;;3.20;2.63;;;4.30;99.90;;;;;;5003688;28;20057;-34
2022/04/13 04:09:43;;;;;;;5.93;3.33;;;4.10;99.90;;;;;;5002649;28;20033;-35
2022/04/13 04:12:09;;;;;;;5.60;3.67;;;4.10;99.90;;;;;;5004567;28;20119;-34
2022/04/13 04:14:35;;;;;;;3.50;2.88;;;4.10;99.90;;;;;;5004168;28;20510;-34
2022/04/13 04:17:01;;;;;;;5.38;2.85;;;4.30;99.90;;;;;;5002377;28;20042;-35
2022/04/13 04:19:26;;;;;;;5.63;3.25;;;4.50;99.90;;;;;;5001901;28;20056;-35
2022/04/13 04:21:54;;;;;;;5.25;3.22;;;4.60;99.90;;;;;;5005380;28;20113;-34
2022/04/13 04:24:20;;;;;;;5.10;3.05;;;4.70;99.90;;;;;;5004204;28;20037;-35
2022/04/13 04:26:46;;;;;;;5.07;3.25;;;4.80;99.90;;;;;;5004285;28;20056;-35
2022/04/13 04:29:12;;;;;;;4.40;3.00;;;4.90;99.90;;;;;;5005774;28;20022;-35
2022/04/13 04:31:50;;;;;;;5.53;2.92;;;5.00;99.90;;;;;;5003000;28;20056;-35
2022/04/13 04:34:21;;;;;;;4.15;3.10;;;4.90;99.90;;;;;;5003025;28;20629;-34
2022/04/13 04:36:47;;;;;;;3.15;2.95;;;4.70;99.90;;;;;;5002291;28;20080;-35
2022/04/13 04:39:12;;;;;;;4.25;3.15;;;4.70;99.90;;;;;;5006425;28;20030;-35
2022/04/13 04:41:42;;;;;;;4.20;2.83;;;4.70;99.90;;;;;;5002893;28;20060;-34
2022/04/13 04:44:08;;;;;;;4.72;3.17;;;4.70;99.90;;;;;;4984692;28;20037;-33
2022/04/13 04:46:35;;;;;;;3.33;2.85;;;4.80;99.90;;;;;;4995375;28;20037;-35
2022/04/13 04:49:01;;;;;;;4.78;2.75;;;4.80;99.90;;;;;;5003894;28;20029;-34
2022/04/13 04:51:27;;;;;;;6.93;3.15;;;4.80;99.90;;;;;;5000934;28;20482;-35
2022/04/13 04:53:52;;;;;;;4.53;2.90;;;4.80;99.90;;;;;;5003246;28;20085;-34
2022/04/13 04:56:18;;;;;;;6.38;3.80;;;4.80;99.90;;;;;;5002665;28;20360;-35
2022/04/13 04:58:43;;;;;;;5.38;3.55;;;4.80;99.90;;;;;;5003352;28;20040;-35
2022/04/13 05:01:09;;;;;;;5.82;4.05;;;4.90;99.90;;;;;;5000481;28;20092;-36
2022/04/13 05:03:35;;;;;;;5.03;3.05;;;4.90;99.90;;;;;;5006113;28;20029;-34
2022/04/13 05:06:01;;;;;;;5.30;3.47;;;4.90;99.90;;;;;;4995872;28;20068;-35
2022/04/13 05:08:27;;;;;;;4.80;3.30;;;4.80;99.90;;;;;;5001144;28;20109;-35
2022/04/13 05:10:52;;;;;;;5.65;3.00;;;4.80;99.90;;;;;;5000292;28;20038;-34
2022/04/13 05:13:18;;;;;;;3.00;2.70;;;4.60;99.90;;;;;;5003545;28;20034;-33
2022/04/13 05:15:47;;;;;;;3.22;2.88;;;4.70;99.90;;;;;;5005574;28;20117;-35
2022/04/13 05:18:13;;;;;;;5.05;3.03;;;4.70;99.90;;;;;;4999806;28;20057;-34
2022/04/13 05:20:42;;;;;;;5.30;3.28;;;4.70;99.90;;;;;;5002355;28;20388;-35
2022/04/13 05:23:07;;;;;;;7.57;4.22;;;4.80;99.90;;;;;;5000454;28;20372;-35
2022/04/13 05:25:33;;;;;;;7.57;5.22;;;4.90;99.90;;;;;;5000434;28;20049;-35
2022/04/13 05:27:59;;;;;;;12.02;6.63;;;4.90;99.90;;;;;;5003827;28;20030;-35
2022/04/13 05:30:25;;;;;;;10.05;6.32;;;5.00;99.90;;;;;;4998723;28;20502;-35
2022/04/13 05:32:58;;;;;;;6.50;3.53;;;5.10;99.90;;;;;;4996073;28;20419;-36
2022/04/13 05:35:28;;;;;;;5.30;3.20;;;5.10;99.90;;;;;;4995909;28;20031;-34
2022/04/13 05:37:55;;;;;;;4.32;2.90;;;5.10;99.90;;;;;;4997486;28;20030;-36
2022/04/13 05:40:24;;;;;;;4.78;2.90;;;5.00;99.90;;;;;;5003011;28;20041;-36
2022/04/13 05:42:54;;;;;;;5.10;3.17;;;5.00;99.90;;;;;;5002056;28;20055;-36
2022/04/13 05:45:20;;;;;;;4.45;2.83;;;5.10;99.90;;;;;;5000272;28;20034;-34
2022/04/13 05:47:45;;;;;;;6.13;3.33;;;5.20;99.90;;;;;;4998394;28;20069;-34
2022/04/13 05:50:12;;;;;;;3.85;3.50;;;5.20;99.90;;;;;;5003314;28;20033;-36
2022/04/13 05:52:39;;;;;;;4.43;3.40;;;5.20;99.90;;;;;;5001152;28;20044;-35
2022/04/13 05:55:05;;;;;;;5.78;3.10;;;5.20;99.90;;;;;;5010629;28;20037;-35
2022/04/13 05:57:31;;;;;;;3.58;3.10;;;5.20;99.90;;;;;;5003891;28;20038;-36
2022/04/13 05:59:57;;;;;;;5.50;3.50;;;5.30;99.90;;;;;;5007669;28;20033;-35
2022/04/13 06:02:23;;;;;;;4.38;3.08;;;5.30;99.90;;;;;;5001322;28;20105;-35
2022/04/13 06:04:48;;;;;;;6.47;3.85;;;5.40;99.90;;;;;;5008610;28;20517;-34
2022/04/13 06:07:14;;;;;;;5.03;4.00;;;5.40;99.90;;;;;;5004287;28;20030;-34
2022/04/13 06:09:40;;;;;;;8.65;4.70;;;5.40;99.90;;;;;;5006036;28;20080;-34
2022/04/13 06:12:06;;;;;;;8.82;5.43;;;5.40;99.90;;;;;;5007380;28;20025;-35
2022/04/13 06:14:31;;;;;;;8.68;4.60;;;5.40;99.90;;;;;;5001310;28;20533;-34
2022/04/13 06:16:57;;;;;;;11.73;4.95;;;5.50;99.90;;;;;;5004242;28;20109;-36
2022/04/13 06:19:23;;;;;;;5.35;3.95;;;5.50;99.90;;;;;;5003225;28;20446;-36
2022/04/13 06:21:48;;;;;;;8.45;4.78;;;5.50;99.90;;;;;;4997907;28;20141;-34
2022/04/13 06:24:14;;;;;;;6.53;5.05;;;5.60;99.90;;;;;;5000116;28;20478;-34
2022/04/13 06:26:40;;;;;;;8.52;4.50;;;5.70;99.90;;;;;;4993648;28;21263;-36
2022/04/13 06:29:06;;;;;;;6.35;4.28;;;5.90;99.90;;;;;;5004090;28;20049;-35
2022/04/13 06:31:32;;;;;;;13.98;4.57;;;6.00;99.90;;;;;;5006550;28;20053;-35
2022/04/13 06:33:57;;;;;;;5.70;3.83;;;6.20;99.90;;;;;;5006181;28;20049;-35
2022/04/13 06:36:23;;;;;;;4.28;3.88;;;6.30;99.90;;;;;;5007320;28;20045;-34
2022/04/13 06:38:48;;;;;;;6.05;3.97;;;6.50;99.90;;;;;;5007204;28;20018;-34
2022/04/13 06:41:14;;;;;;;7.35;4.25;;;6.80;99.90;;;;;;5007221;28;20038;-35
2022/04/13 06:43:40;;;;;;;7.43;3.92;;;7.00;99.90;;;;;;5004838;28;20088;-34
2022/04/13 06:46:07;;;;;;;6.78;4.40;;;7.30;99.90;;;;;;5008315;28;20033;-35
2022/04/13 06:48:33;;;;;;;6.40;4.65;;;7.40;99.90;;;;;;5004332;28;20573;-35
2022/04/13 06:51:00;;;;;;;5.75;4.55;;;7.60;99.90;;;;;;5005319;28;20591;-35
2022/04/13 06:53:25;;;;;;;7.75;4.60;;;7.70;99.90;;;;;;5006138;28;20030;-35
2022/04/13 06:55:52;;;;;;;6.60;5.03;;;8.00;99.90;;;;;;5003647;28;20064;-36
2022/04/13 06:58:18;;;;;;;9.25;5.07;;;8.00;99.90;;;;;;5002481;28;20076;-34
2022/04/13 07:00:45;;;;;;;8.68;5.57;;;8.10;99.90;;;;;;5000634;28;20030;-34
2022/04/13 07:03:11;;;;;;;7.75;5.22;;;8.30;99.90;;;;;;5001399;28;20430;-35
2022/04/13 07:05:37;;;;;;;8.07;5.57;;;8.40;99.90;;;;;;5006650;28;20041;-35
2022/04/13 07:08:04;;;;;;;8.68;5.90;;;8.60;99.90;;;;;;5006543;28;20022;-36
2022/04/13 07:10:34;;;;;;;10.98;5.85;;;8.80;99.90;;;;;;5008368;28;20053;-34
2022/04/13 07:13:00;;;;;;;10.43;6.85;;;9.00;99.90;;;;;;5006253;28;20036;-34
2022/04/13 07:15:26;;;;;;;12.07;6.75;;;9.20;99.90;;;;;;5004251;28;20482;-36
2022/04/13 07:17:53;;;;;;;10.32;6.43;;;9.40;99.90;;;;;;5006688;28;20574;-35
2022/04/13 07:20:18;;;;;;;9.23;6.28;;;9.50;99.90;;;;;;5002519;28;20026;-34
2022/04/13 07:22:49;;;;;;;10.75;6.25;;;9.60;99.90;;;;;;5005333;28;20495;-36
2022/04/13 07:25:18;;;;;;;14.23;7.10;;;9.80;99.90;;;;;;5008006;28;20030;-36
2022/04/13 07:27:45;;;;;;;15.25;7.13;;;9.90;99.90;;;;;;5003504;28;20038;-35
2022/04/13 07:30:11;;;;;;;12.35;6.78;;;10.00;99.90;;;;;;5007188;28;20030;-36
2022/04/13 07:32:37;;;;;;;13.32;6.38;;;10.10;99.90;;;;;;5001901;28;20042;-36
2022/04/13 07:35:06;;;;;;;11.68;7.03;;;10.30;99.90;;;;;;5006068;28;20053;-36
2022/04/13 07:37:32;;;;;;;10.93;7.40;;;10.40;99.90;;;;;;5003599;28;20056;-35
2022/04/13 07:39:58;;;;;;;9.10;6.45;;;10.60;99.90;;;;;;5004808;28;20034;-34
2022/04/13 07:42:26;;;;;;;11.98;6.68;;;10.70;99.90;;;;;;5014339;28;20030;-36
2022/04/13 07:44:52;;;;;;;9.07;6.93;;;10.80;99.90;;;;;;5004851;28;20057;-35
2022/04/13 07:47:19;;;;;;;11.38;6.75;;;10.90;99.90;;;;;;4985443;28;20447;-35
2022/04/13 07:49:46;;;;;;;13.10;6.80;;;11.10;99.90;;;;;;5005030;28;20064;-36
2022/04/13 07:52:13;;;;;;;13.25;7.10;;;11.20;98.30;;;;;;5006618;28;20489;-36
2022/04/13 07:54:39;;;;;;;11.45;6.80;;;11.20;99.90;;;;;;5005888;28;20068;-36
2022/04/13 07:57:04;;;;;;;10.80;7.68;;;11.40;99.90;;;;;;5009132;28;20067;-35
2022/04/13 07:59:30;;;;;;;11.43;6.65;;;11.60;99.90;;;;;;5006509;28;20542;-34
2022/04/13 08:01:56;;;;;;;13.82;7.47;;;11.50;98.30;;;;;;5005894;28;20441;-35
2022/04/13 08:04:21;;;;;;;14.35;7.15;;;11.80;99.90;;;;;;5003375;28;20034;-35
2022/04/13 08:06:48;;;;;;;13.73;7.03;;;11.90;98.90;;;;;;5004899;28;20159;-36
2022/04/13 08:09:14;;;;;;;11.52;6.57;;;12.00;97.30;;;;;;5006162;28;20030;-36
2022/04/13 08:11:40;;;;;;;11.60;6.95;;;11.90;97.50;;;;;;5002899;28;20030;-35
2022/04/13 08:14:06;;;;;;;11.55;6.80;;;12.00;99.90;;;;;;5003743;28;20030;-34
2022/04/13 08:16:31;;;;;;;14.52;7.28;;;12.10;94.80;;;;;;5001879;28;20034;-35
2022/04/13 08:18:57;;;;;;;12.43;6.40;;;12.20;96.40;;;;;;5002225;28;20052;-36
2022/04/13 08:21:23;;;;;;;13.23;7.03;;;12.30;95.00;;;;;;5006219;28;20030;-36
2022/04/13 08:23:49;;;;;;;15.15;7.30;;;12.40;96.40;;;;;;5005231;28;20034;-36
2022/04/13 08:26:15;;;;;;;13.13;7.35;;;12.60;94.20;;;;;;5000250;28;20041;-36
2022/04/13 08:28:40;;;;;;;10.75;7.00;;;12.60;93.30;;;;;;5005952;28;20030;-35
2022/04/13 08:31:09;;;;;;;12.90;6.68;;;12.70;94.30;;;;;;5002900;28;20037;-36
2022/04/13 08:33:38;;;;;;;14.18;7.18;;;12.90;94.20;;;;;;5005455;28;20044;-35
2022/04/13 08:36:03;;;;;;;13.05;7.00;;;13.00;94.20;;;;;;5004059;28;20104;-36
2022/04/13 08:38:29;;;;;;;12.45;7.05;;;13.10;93.50;;;;;;5006686;28;20038;-36
2022/04/13 08:41:00;;;;;;;11.82;7.40;;;13.30;93.50;;;;;;5003834;28;20367;-35
2022/04/13 08:43:41;;;;;;;14.10;6.63;;;13.30;92.00;;;;;;5007686;28;20033;-33
2022/04/13 08:46:11;;;;;;;15.98;7.47;;;13.40;82.90;;;;;;5002961;28;20116;-35
2022/04/13 08:48:40;;;;;;;13.38;6.70;;;13.50;89.60;;;;;;5004892;28;20084;-35
2022/04/13 08:51:08;;;;;;;14.52;7.30;;;13.70;93.20;;;;;;5002820;28;20060;-35
2022/04/13 08:53:39;;;;;;;13.63;6.75;;;13.90;93.40;;;;;;5004448;28;20065;-36
2022/04/13 08:56:08;;;;;;;14.63;7.35;;;13.90;82.60;;;;;;5004932;28;20029;-36
2022/04/13 08:58:46;;;;;;;13.27;6.88;;;14.10;94.00;;;;;;5000731;28;20033;-35
2022/04/13 09:01:25;;;;;;;15.02;7.22;;;14.30;81.60;;;;;;4998611;28;20521;-36
2022/04/13 09:03:52;;;;;;;13.52;7.28;;;14.50;92.30;;;;;;5001203;28;20033;-33
2022/04/13 09:06:22;;;;;;;14.30;7.32;;;14.50;90.60;;;;;;5001396;28;20030;-36
2022/04/13 09:09:00;;;;;;;13.95;7.40;;;14.70;92.10;;;;;;5001482;28;20041;-33
2022/04/13 09:11:27;;;;;;;11.95;7.07;;;14.70;95.90;;;;;;5003028;28;20406;-35
2022/04/13 09:13:53;;;;;;;11.70;7.63;;;14.70;92.70;;;;;;5002470;28;20030;-35
2022/04/13 09:16:19;;;;;;;14.93;7.95;;;14.70;92.30;;;;;;4996716;28;20022;-36
2022/04/13 09:18:47;;;;;;;13.43;7.22;;;14.90;91.40;;;;;;5002285;28;20100;-35
2022/04/13 09:21:14;;;;;;;15.02;7.68;;;14.90;91.30;;;;;;5001695;28;20101;-35
2022/04/13 09:23:40;;;;;;;12.00;7.47;;;15.10;94.60;;;;;;4998278;28;20038;-35
2022/04/13 09:26:07;;;;;;;21.33;8.05;;;15.10;92.90;;;;;;5005310;28;20030;-35
2022/04/13 09:28:33;;;;;;;15.13;7.75;;;15.40;91.60;;;;;;5005261;28;20038;-36
2022/04/13 09:31:00;;;;;;;13.15;7.55;;;15.40;92.50;;;;;;5002750;28;21596;-35
2022/04/13 09:33:26;;;;;;;14.68;7.20;;;15.50;89.40;;;;;;5007679;28;20038;-35
2022/04/13 09:35:53;;;;;;;18.75;7.70;;;15.60;90.70;;;;;;5006793;28;20041;-34
2022/04/13 09:38:19;;;;;;;11.90;7.70;;;15.70;80.10;;;;;;5004555;28;20029;-35
2022/04/13 09:40:46;;;;;;;10.32;6.50;;;15.60;89.80;;;;;;5007926;28;20041;-36
2022/04/13 09:43:14;;;;;;;11.75;7.38;;;15.60;86.50;;;;;;5003751;28;20044;-35
2022/04/13 09:45:43;;;;;;;13.65;8.32;;;15.80;93.00;;;;;;5002169;28;20030;-35
2022/04/13 09:48:29;;;;;;;15.13;8.20;;;15.80;92.90;;;;;;5004209;28;20473;-35
2022/04/13 09:51:00;;;;;;;13.18;7.45;;;15.80;90.00;;;;;;5007473;28;20053;-35
2022/04/13 09:53:26;;;;;;;12.30;7.70;;;16.00;89.10;;;;;;5003485;28;20423;-36
2022/04/13 09:55:57;;;;;;;12.02;8.63;;;15.90;90.00;;;;;;5006513;28;20034;-36
2022/04/13 09:58:32;;;;;;;14.63;8.15;;;16.00;90.30;;;;;;5004703;28;20028;-35
2022/04/13 10:01:03;;;;;;;11.63;7.18;;;16.20;92.20;;;;;;5005081;28;20038;-35
2022/04/13 10:03:28;;;;;;;13.82;8.52;;;16.70;82.00;;;;;;5005583;28;20037;-36
2022/04/13 10:05:58;;;;;;;15.30;7.70;;;16.90;88.70;;;;;;5006529;28;20029;-35
2022/04/13 10:08:28;;;;;;;13.43;8.15;;;17.00;81.20;;;;;;5009940;28;20399;-35
2022/04/13 10:10:56;;;;;;;14.25;8.20;;;16.70;82.00;;;;;;5006473;28;20030;-35
2022/04/13 10:13:40;;;;;;;11.52;7.65;;;16.60;85.30;;;;;;5007202;28;20041;-33
2022/04/13 10:16:11;;;;;;;12.20;8.38;;;17.00;82.40;;;;;;5006131;28;20903;-32
2022/04/13 10:18:57;;;;;;;14.25;8.60;;;17.10;86.30;;;;;;5008266;28;20045;-35
2022/04/13 10:21:43;;;;;;;12.95;8.65;;;16.90;73.10;;;;;;5002549;28;20334;-36
2022/04/13 10:24:29;;;;;;;12.45;8.25;;;16.90;79.30;;;;;;5006856;28;20053;-35
2022/04/13 10:27:25;;;;;;;9.88;7.03;;;16.80;94.30;;;;;;5004097;28;20554;-35
2022/04/13 10:29:51;;;;;;;16.08;8.25;;;17.00;84.20;;;;;;5008643;28;20495;-35
2022/04/13 10:32:18;;;;;;;11.98;7.50;;;17.40;92.30;;;;;;5008174;28;20040;-36
2022/04/13 10:34:59;;;;;;;13.82;7.97;;;17.30;90.30;;;;;;5005551;28;20041;-35
2022/04/13 10:37:27;;;;;;;12.40;8.13;;;17.30;89.60;;;;;;5004869;28;20025;-36
2022/04/13 10:39:53;;;;;;;14.60;8.95;;;17.30;85.90;;;;;;5007936;28;20534;-35
2022/04/13 10:42:20;;;;;;;11.70;8.15;;;17.30;87.30;;;;;;5009349;28;20415;-36
2022/04/13 10:44:56;;;;;;;13.85;8.13;;;17.40;79.50;;;;;;5007471;28;20033;-34
2022/04/13 10:47:46;;;;;;;12.80;7.40;;;17.70;85.50;;;;;;5007150;28;20360;-33
2022/04/13 10:50:14;;;;;;;11.52;7.22;;;17.60;88.30;;;;;;5007271;28;20034;-35
2022/04/13 10:52:50;;;;;;;12.65;7.40;;;17.70;82.80;;;;;;5006333;28;20034;-35
2022/04/13 10:55:18;;;;;;;13.95;8.00;;;17.90;84.90;;;;;;5007898;28;20086;-35
2022/04/13 10:57:52;;;;;;;17.20;8.50;;;17.90;75.70;;;;;;5006161;28;20072;-34
2022/04/13 11:00:19;;;;;;;14.25;7.85;;;17.80;78.80;;;;;;5007353;28;20090;-34
2022/04/13 11:02:58;;;;;;;13.43;8.47;;;17.80;83.50;;;;;;5007581;28;20026;-35
2022/04/13 11:05:25;;;;;;;13.13;7.60;;;18.00;80.00;;;;;;5000497;28;20033;-34
2022/04/13 11:08:12;;;;;;;14.45;7.78;;;18.10;85.20;;;;;;5006056;28;20033;-35
2022/04/13 11:10:39;;;;;;;16.13;8.38;;;18.20;75.60;;;;;;5005382;28;20033;-35
2022/04/13 11:13:05;;;;;;;16.55;8.43;;;18.30;80.10;;;;;;5004937;28;20037;-34
2022/04/13 11:15:43;;;;;;;13.10;7.82;;;18.30;72.50;;;;;;5005619;28;20036;-35
2022/04/13 11:18:10;;;;;;;14.55;7.80;;;18.50;88.10;;;;;;4989915;28;20045;-35
2022/04/13 11:20:36;;;;;;;12.63;6.97;;;18.60;80.90;;;;;;5006325;28;20026;-35
2022/04/13 11:23:15;;;;;;;13.50;8.02;;;18.50;64.90;;;;;;5006277;28;20108;-35
2022/04/13 11:25:46;;;;;;;14.32;7.38;;;18.70;76.50;;;;;;5004748;28;20084;-35
2022/04/13 11:28:34;;;;;;;16.10;8.40;;;18.70;78.50;;;;;;5005244;28;20061;-33
2022/04/13 11:31:10;;;;;;;13.77;7.50;;;18.80;68.40;;;;;;5004510;28;20034;-35
2022/04/13 11:33:51;;;;;;;9.80;5.70;;;18.90;70.40;;;;;;5005132;28;20037;-35
2022/04/13 11:36:22;;;;;;;10.90;6.47;;;19.20;70.40;;;;;;5005176;28;20150;-34
2022/04/13 11:38:49;;;;;;;13.93;6.38;;;19.10;71.10;;;;;;4987781;28;20022;-34
2022/04/13 11:41:15;;;;;;;12.73;6.53;;;19.20;72.50;;;;;;5002262;28;20514;-35
2022/04/13 11:43:41;;;;;;;10.13;6.40;;;19.10;84.50;;;;;;5009997;28;20030;-34
2022/04/13 11:46:09;;;;;;;10.52;6.80;;;19.20;59.90;;;;;;5008263;28;20030;-35
2022/04/13 11:48:36;;;;;;;9.15;5.53;;;19.20;77.30;;;;;;5005044;28;20037;-35
2022/04/13 11:51:29;;;;;;;13.43;6.60;;;19.10;61.00;;;;;;5008118;28;20034;-34
2022/04/13 11:54:07;;;;;;;11.02;7.38;;;19.20;56.50;;;;;;5007081;28;20076;-35
2022/04/13 11:56:35;;;;;;;14.88;7.68;;;19.20;73.70;;;;;;5006577;28;20022;-34
2022/04/13 11:59:01;;;;;;;10.85;7.10;;;19.40;72.90;;;;;;5007493;28;20038;-35
2022/04/13 12:01:27;;;;;;;10.95;7.38;;;19.40;71.50;;;;;;5005718;28;20040;-35
2022/04/13 12:03:55;;;;;;;11.88;6.75;;;19.40;75.90;;;;;;5004527;28;20462;-35
2022/04/13 12:06:24;;;;;;;9.18;6.28;;;19.50;67.20;;;;;;5008382;28;20222;-35
2022/04/13 12:08:54;;;;;;;10.90;6.75;;;19.50;65.70;;;;;;5005272;28;20061;-35
2022/04/13 12:11:46;;;;;;;11.38;6.50;;;19.50;65.70;;;;;;5008905;28;20030;-35
2022/04/13 12:14:30;;;;;;;12.02;6.57;;;19.40;62.80;;;;;;5004546;28;20423;-34
2022/04/13 12:16:57;;;;;;;11.23;6.78;;;19.60;65.20;;;;;;5004673;28;20045;-33
2022/04/13 12:19:23;;;;;;;11.60;5.68;;;19.60;60.90;;;;;;5003772;28;20164;-34
2022/04/13 12:21:49;;;;;;;10.57;6.10;;;19.60;66.80;;;;;;5005967;28;20100;-34
2022/04/13 12:24:14;;;;;;;7.80;5.10;;;19.80;76.30;;;;;;5005023;28;20036;-34
2022/04/13 12:26:43;;;;;;;8.48;5.55;;;19.90;58.00;;;;;;5002999;28;20033;-34
2022/04/13 12:29:14;;;;;;;10.55;5.65;;;19.70;63.80;;;;;;5007195;28;20025;-35
2022/04/13 12:31:54;;;;;;;8.73;4.72;;;19.70;62.80;;;;;;5002609;28;20042;-34
2022/04/13 12:34:25;;;;;;;8.25;4.57;;;19.70;61.90;;;;;;5002963;28;20109;-35
2022/04/13 12:36:55;;;;;;;7.97;5.00;;;19.80;59.80;;;;;;5004400;28;20065;-34
2022/04/13 12:39:29;;;;;;;7.50;4.65;;;19.80;59.60;;;;;;5003339;28;20113;-34
2022/04/13 12:41:55;;;;;;;6.97;4.60;;;19.80;58.90;;;;;;5002019;28;20064;-34
2022/04/13 12:44:21;;;;;;;6.95;4.03;;;19.80;55.70;;;;;;5004650;28;20058;-33
2022/04/13 12:46:47;;;;;;;11.55;5.97;;;19.80;60.40;;;;;;5005152;28;20447;-33
2022/04/13 12:49:20;;;;;;;9.35;4.68;;;19.90;56.90;;;;;;5005921;28;20547;-33
2022/04/13 12:51:46;;;;;;;9.32;5.55;;;19.80;53.80;;;;;;5003041;28;20121;-34
2022/04/13 12:54:17;;;;;;;8.57;5.03;;;19.80;49.10;;;;;;5004349;28;22247;-34